Berlin — 9HA2295 — position and weather

sailwx.info

Track history (hours):
 
Tides and Currents Weather Stations Pressure Air Temp Water Temp Dewpoint Dewpoint Depression Visibility Wind Speed Wind Dir Waves Ship Positions

Berlin

Last reported at 2014-Aug-22 03:25 UTC. Time now 2014-Aug-22 03:57 UTC.
Position N 40°18' E 003°14'.

Length 140 m; draft 5 m.

Type: Passenger vessel. MMSI: 248277000.

Date/timePositionNaut miles runAvg speedWind from/ knotsBaromVisibWave heightAir tempDewpointWater temp
2014-Aug-22 03:25N 40°18' E 003°14'1415.7
2014-Aug-22 02:33N 40°08' E 003°01'1514.7
2014-Aug-22 01:33N 39°58' E 002°47'1515.0
2014-Aug-22 00:33N 39°48' E 002°33'1514.6
2014-Aug-21 23:33N 39°38' E 002°19'1514.9
2014-Aug-21 22:33N 39°27' E 002°06'1615.4
2014-Aug-21 21:33N 39°14' E 001°55'1414.4
2014-Aug-21 20:33N 39°03' E 001°43'1413.9
2014-Aug-21 19:33N 38°54' E 001°29'2 0.3
2014-Aug-21 12:22N 38°55' E 001°27'6 6.7
2014-Aug-21 11:29N 38°49' E 001°26'4 3.1
2014-Aug-21 10:09N 38°45' E 001°25'0 0.0
2014-Aug-21 05:14N 38°45' E 001°25'1 1.1
2014-Aug-21 04:33N 38°45' E 001°24'8 8.2
2014-Aug-21 03:32N 38°47' E 001°14'89 3.9
2014-Aug-20 04:21N 37°52' W 000°16'1214.2
2014-Aug-20 03:32N 37°42' W 000°24'1414.2
2014-Aug-20 02:33N 37°31' W 000°34'1414.1
2014-Aug-20 01:33N 37°21' W 000°47'23114.4
2014-Aug-19 09:31N 35°59' W 005°16'5413.5
2014-Aug-19 05:33N 36°13' W 006°20'88 3.1
2014-Aug-18 01:33N 36°48' W 008°01'1413.9
2014-Aug-18 00:33N 36°48' W 008°18'8911.0
2014-Aug-17 16:30N 38°03' W 009°19'1414.2
2014-Aug-17 15:33N 38°16' W 009°19'1614.2
2014-Aug-17 14:27N 38°32' W 009°20'1011.6
2014-Aug-17 13:33N 38°41' W 009°14'5 5.4
2014-Aug-17 12:32N 38°43' W 009°07'0 0.0
2014-Aug-17 11:32N 38°43' W 009°07'0 0.0
2014-Aug-17 10:29N 38°43' W 009°07'0 0.0
2014-Aug-17 09:32N 38°43' W 009°07'0 0.3
2014-Aug-17 08:33N 38°43' W 009°07'8 7.9
2014-Aug-17 07:33N 38°41' W 009°17'  
2014-Aug-13 22:32N 50°08' W 001°28'6410.4
2014-Aug-13 16:22N 50°29' E 000°06'1012.8
2014-Aug-13 15:33N 50°31' E 000°22'1211.8
2014-Aug-13 14:33N 50°36' E 000°40'1110.9
2014-Aug-13 13:33N 50°42' E 000°54'1010.2
2014-Aug-13 12:33N 50°48' E 001°07'1110.0
2014-Aug-13 11:30N 50°55' E 001°19'1213.0
2014-Aug-13 10:33N 51°04' E 001°32'1312.6
2014-Aug-13 09:33N 51°16' E 001°38'1212.4
2014-Aug-13 08:34N 51°27' E 001°28'1414.0
2014-Aug-13 07:33N 51°30' E 001°06'1515.2
2014-Aug-13 06:33N 51°30' E 000°41'1212.2
2014-Aug-13 05:33N 51°27' E 000°23'1111.2
2014-Aug-13 04:33N 51°31' E 000°06'6 5.5
2014-Aug-13 03:33N 51°30' W 000°03'1 1.0
2014-Aug-13 02:33N 51°30' W 000°05'0 0.0
2014-Aug-13 01:33N 51°30' W 000°05'0 0.0
2014-Aug-13 00:33N 51°30' W 000°05'0 0.0
2014-Aug-12 23:33N 51°30' W 000°05'0 0.0
2014-Aug-12 22:30N 51°30' W 000°05'0 0.0
2014-Aug-12 21:30N 51°30' W 000°05'0 0.0
2014-Aug-12 20:27N 51°30' W 000°05'0 0.0
2014-Aug-12 19:33N 51°30' W 000°05'0 0.0
2014-Aug-12 18:33N 51°30' W 000°05'0 0.0
2014-Aug-12 17:33N 51°30' W 000°05'0 0.0
2014-Aug-12 16:33N 51°30' W 000°05'0 0.0
2014-Aug-12 15:33N 51°30' W 000°05'0 0.0
2014-Aug-12 14:33N 51°30' W 000°05'0 0.0
2014-Aug-12 13:33N 51°30' W 000°05'0 0.0
2014-Aug-12 12:33N 51°30' W 000°05'0 0.0
2014-Aug-12 11:33N 51°30' W 000°05'0 0.0
2014-Aug-12 10:30N 51°30' W 000°05'0 0.0
2014-Aug-12 09:33N 51°30' W 000°05'0 0.0
2014-Aug-12 08:33N 51°30' W 000°05'0 0.0
2014-Aug-12 07:21N 51°30' W 000°05'0 0.0
2014-Aug-12 06:33N 51°30' W 000°05'0 0.0
2014-Aug-12 05:33N 51°30' W 000°05'0 0.0
2014-Aug-12 04:33N 51°30' W 000°05'0 0.0
2014-Aug-12 03:33N 51°30' W 000°05'  
Track history (hours):
 
Tides and Currents Weather Stations Pressure Air Temp Water Temp Dewpoint Dewpoint Depression Visibility Wind Speed Wind Dir Waves Ship Positions

Berlin

Last reported at 2014-Aug-22 03:25 UTC. Time now 2014-Aug-22 03:57 UTC.
Position N 40°18' E 003°14'.

Length 140 m; draft 5 m.

Type: Passenger vessel. MMSI: 248277000.

Date/timePositionNaut miles runAvg speedWind from/ knotsBaromVisibWave heightAir tempDewpointWater temp
2014-Aug-22 03:25N 40°18' E 003°14'1415.7
2014-Aug-22 02:33N 40°08' E 003°01'1514.7
2014-Aug-22 01:33N 39°58' E 002°47'1515.0
2014-Aug-22 00:33N 39°48' E 002°33'1514.6
2014-Aug-21 23:33N 39°38' E 002°19'1514.9
2014-Aug-21 22:33N 39°27' E 002°06'1615.4
2014-Aug-21 21:33N 39°14' E 001°55'1414.4
2014-Aug-21 20:33N 39°03' E 001°43'1413.9
2014-Aug-21 19:33N 38°54' E 001°29'2 0.3
2014-Aug-21 12:22N 38°55' E 001°27'6 6.7
2014-Aug-21 11:29N 38°49' E 001°26'4 3.1
2014-Aug-21 10:09N 38°45' E 001°25'0 0.0
2014-Aug-21 05:14N 38°45' E 001°25'1 1.1
2014-Aug-21 04:33N 38°45' E 001°24'8 8.2
2014-Aug-21 03:32N 38°47' E 001°14'89 3.9
2014-Aug-20 04:21N 37°52' W 000°16'1214.2
2014-Aug-20 03:32N 37°42' W 000°24'1414.2
2014-Aug-20 02:33N 37°31' W 000°34'1414.1
2014-Aug-20 01:33N 37°21' W 000°47'23114.4
2014-Aug-19 09:31N 35°59' W 005°16'5413.5
2014-Aug-19 05:33N 36°13' W 006°20'88 3.1
2014-Aug-18 01:33N 36°48' W 008°01'1413.9
2014-Aug-18 00:33N 36°48' W 008°18'8911.0
2014-Aug-17 16:30N 38°03' W 009°19'1414.2
2014-Aug-17 15:33N 38°16' W 009°19'1614.2
2014-Aug-17 14:27N 38°32' W 009°20'1011.6
2014-Aug-17 13:33N 38°41' W 009°14'5 5.4
2014-Aug-17 12:32N 38°43' W 009°07'0 0.0
2014-Aug-17 11:32N 38°43' W 009°07'0 0.0
2014-Aug-17 10:29N 38°43' W 009°07'0 0.0
2014-Aug-17 09:32N 38°43' W 009°07'0 0.3
2014-Aug-17 08:33N 38°43' W 009°07'8 7.9
2014-Aug-17 07:33N 38°41' W 009°17'  
2014-Aug-13 22:32N 50°08' W 001°28'6410.4
2014-Aug-13 16:22N 50°29' E 000°06'1012.8
2014-Aug-13 15:33N 50°31' E 000°22'1211.8
2014-Aug-13 14:33N 50°36' E 000°40'1110.9
2014-Aug-13 13:33N 50°42' E 000°54'1010.2
2014-Aug-13 12:33N 50°48' E 001°07'1110.0
2014-Aug-13 11:30N 50°55' E 001°19'1213.0
2014-Aug-13 10:33N 51°04' E 001°32'1312.6
2014-Aug-13 09:33N 51°16' E 001°38'1212.4
2014-Aug-13 08:34N 51°27' E 001°28'1414.0
2014-Aug-13 07:33N 51°30' E 001°06'1515.2
2014-Aug-13 06:33N 51°30' E 000°41'1212.2
2014-Aug-13 05:33N 51°27' E 000°23'1111.2
2014-Aug-13 04:33N 51°31' E 000°06'6 5.5
2014-Aug-13 03:33N 51°30' W 000°03'1 1.0
2014-Aug-13 02:33N 51°30' W 000°05'0 0.0
2014-Aug-13 01:33N 51°30' W 000°05'0 0.0
2014-Aug-13 00:33N 51°30' W 000°05'0 0.0
2014-Aug-12 23:33N 51°30' W 000°05'0 0.0
2014-Aug-12 22:30N 51°30' W 000°05'0 0.0
2014-Aug-12 21:30N 51°30' W 000°05'0 0.0
2014-Aug-12 20:27N 51°30' W 000°05'0 0.0
2014-Aug-12 19:33N 51°30' W 000°05'0 0.0
2014-Aug-12 18:33N 51°30' W 000°05'0 0.0
2014-Aug-12 17:33N 51°30' W 000°05'0 0.0
2014-Aug-12 16:33N 51°30' W 000°05'0 0.0
2014-Aug-12 15:33N 51°30' W 000°05'0 0.0
2014-Aug-12 14:33N 51°30' W 000°05'0 0.0
2014-Aug-12 13:33N 51°30' W 000°05'0 0.0
2014-Aug-12 12:33N 51°30' W 000°05'0 0.0
2014-Aug-12 11:33N 51°30' W 000°05'0 0.0
2014-Aug-12 10:30N 51°30' W 000°05'0 0.0
2014-Aug-12 09:33N 51°30' W 000°05'0 0.0
2014-Aug-12 08:33N 51°30' W 000°05'0 0.0
2014-Aug-12 07:21N 51°30' W 000°05'0 0.0
2014-Aug-12 06:33N 51°30' W 000°05'0 0.0
2014-Aug-12 05:33N 51°30' W 000°05'0 0.0
2014-Aug-12 04:33N 51°30' W 000°05'0 0.0
2014-Aug-12 03:33N 51°30' W 000°05'  

Dump ship's entire track history